Terminal Aerodrome Forecast
Issued by NWS Quad Cities IA IL

Home | Current Version | Previous Version | Text Only | Print | Product List | Glossary On
Versions: 1 2 3 4 5 6 7 8 9 10 11 12 13 14 15 16 17 18
000
FTUS43 KDVN 251700 AAA
TAFDBQ
TAF AMD
KDBQ 251701Z 2517/2612 08010KT 1 1/2SM -SN BR BKN010 OVC020
      TEMPO 2517/2520 1/2SM SN OVC008
     FM252300 06011KT 3/4SM -SN BR OVC004
     FM260300 02010KT 3SM -SN OVC005
     FM260900 02008KT 6SM BR BKN008=

USA.gov is the U.S. government's official web portal to all federal, state and local government web resources and services.